Time;durP1;ratioP1;P1;durP2;ratioP2;P2;SDS_P1;SDS_P2;PMS_P1;PMS_P2;Temp;Humidity;BMP_temperature;BMP_pressure;BME280_temperature;BME280_humidity;BME280_pressure;Samples;Min_cycle;Max_cycle;Signal;HPM_P1;HPM_P2
2023/03/12 00:02:02;;;;;;;5.60;2.53;;;;;;;;;;5101907;28;20792;-72
2023/03/12 00:07:50;;;;;;;4.97;2.53;;;;;;;;;;5122374;28;20429;-72
2023/03/12 00:13:41;;;;;;;7.10;2.63;;;;;;;;;;5024426;28;20449;-71
2023/03/12 00:20:01;;;;;;;11.27;2.70;;;;;;;;;;5040263;28;20442;-72
2023/03/12 00:22:32;;;;;;;5.23;2.07;;;;;;;;;;5020843;28;20586;-73
2023/03/12 00:25:15;;;;;;;6.17;2.77;;;;;;;;;;5021360;28;20440;-72
2023/03/12 00:28:10;;;;;;;4.70;2.83;;;;;;;;;;5059624;28;20453;-72
2023/03/12 00:30:53;;;;;;;6.93;2.87;;;;;;;;;;5081388;28;21006;-73
2023/03/12 00:33:25;;;;;;;6.00;2.60;;;;;;;;;;5081739;28;20476;-72
2023/03/12 00:36:01;;;;;;;4.80;2.50;;;;;;;;;;5082288;28;20545;-72
2023/03/12 00:38:38;;;;;;;6.60;2.90;;;;;;;;;;5093805;28;20455;-71
2023/03/12 00:41:06;;;;;;;5.33;2.80;;;;;;;;;;5102343;28;20448;-71
2023/03/12 00:43:37;;;;;;;5.87;2.90;;;;;;;;;;5102448;28;20455;-72
2023/03/12 00:46:15;;;;;;;6.43;3.20;;;;;;;;;;5102031;28;20509;-72
2023/03/12 00:48:45;;;;;;;3.90;2.30;;;;;;;;;;5095961;28;20451;-72
2023/03/12 00:51:13;;;;;;;8.40;2.50;;;;;;;;;;5101465;28;20447;-72
2023/03/12 00:53:43;;;;;;;4.80;2.40;;;;;;;;;;5101231;28;20459;-72
2023/03/12 00:56:14;;;;;;;8.40;3.00;;;;;;;;;;5101210;28;20518;-72
2023/03/12 00:58:42;;;;;;;5.33;3.03;;;;;;;;;;5081887;28;20456;-73
2023/03/12 01:01:11;;;;;;;6.27;3.50;;;;;;;;;;5081528;28;20467;-71
2023/03/12 01:03:45;;;;;;;9.70;3.57;;;;;;;;;;5080992;28;20459;-71
2023/03/12 01:06:16;;;;;;;5.10;3.80;;;;;;;;;;5082798;28;20459;-72
2023/03/12 01:08:48;;;;;;;8.80;4.30;;;;;;;;;;5093549;28;20447;-72
2023/03/12 01:11:16;;;;;;;6.87;3.10;;;;;;;;;;5101678;28;20961;-72
2023/03/12 01:13:44;;;;;;;7.73;3.10;;;;;;;;;;5087072;28;20448;-72
2023/03/12 01:16:12;;;;;;;4.83;3.10;;;;;;;;;;5101203;28;20573;-72
2023/03/12 01:18:43;;;;;;;3.90;2.23;;;;;;;;;;5100729;28;20491;-72
2023/03/12 01:21:11;;;;;;;5.00;3.00;;;;;;;;;;5101371;28;20451;-71
2023/03/12 01:23:43;;;;;;;4.53;2.70;;;;;;;;;;5098375;28;20954;-72
2023/03/12 01:26:17;;;;;;;4.50;2.87;;;;;;;;;;5081341;28;20910;-72
2023/03/12 01:28:46;;;;;;;4.97;3.20;;;;;;;;;;5081702;28;20720;-73
2023/03/12 01:31:17;;;;;;;5.60;2.90;;;;;;;;;;5080691;28;20452;-72
2023/03/12 01:33:45;;;;;;;4.83;2.70;;;;;;;;;;5080871;28;20480;-71
2023/03/12 01:36:17;;;;;;;3.27;2.60;;;;;;;;;;5080578;28;20488;-73
2023/03/12 01:38:45;;;;;;;6.60;2.90;;;;;;;;;;5080987;28;20802;-71
2023/03/12 01:41:13;;;;;;;6.93;2.57;;;;;;;;;;5079961;28;20452;-72
2023/03/12 01:43:43;;;;;;;7.23;3.33;;;;;;;;;;5080375;28;20803;-72
2023/03/12 01:46:32;;;;;;;6.73;3.53;;;;;;;;;;5081244;28;20989;-72
2023/03/12 01:49:02;;;;;;;3.53;2.40;;;;;;;;;;5079848;28;20927;-72
2023/03/12 01:51:33;;;;;;;6.17;2.73;;;;;;;;;;5080780;28;20472;-72
2023/03/12 01:54:02;;;;;;;3.57;2.50;;;;;;;;;;5079722;28;20452;-72
2023/03/12 01:56:34;;;;;;;4.33;3.00;;;;;;;;;;5080349;28;20924;-72
2023/03/12 01:59:05;;;;;;;9.07;2.97;;;;;;;;;;5080594;28;20464;-72
2023/03/12 02:01:33;;;;;;;12.00;3.33;;;;;;;;;;5080385;28;20872;-72
2023/03/12 02:04:02;;;;;;;6.13;3.47;;;;;;;;;;5080168;28;20740;-72
2023/03/12 02:06:33;;;;;;;5.53;3.23;;;;;;;;;;5078857;28;20449;-72
2023/03/12 02:09:01;;;;;;;5.53;3.20;;;;;;;;;;5079400;28;20891;-72
2023/03/12 02:11:29;;;;;;;4.50;3.40;;;;;;;;;;5079292;28;20955;-72
2023/03/12 02:13:59;;;;;;;8.80;3.70;;;;;;;;;;5079041;28;20971;-72
2023/03/12 02:16:28;;;;;;;7.53;3.30;;;;;;;;;;5079127;28;20480;-72
2023/03/12 02:18:56;;;;;;;8.93;3.03;;;;;;;;;;5079033;28;20464;-73
2023/03/12 02:21:26;;;;;;;5.13;3.00;;;;;;;;;;5095368;28;20448;-72
2023/03/12 02:23:57;;;;;;;4.60;3.17;;;;;;;;;;5099542;28;20462;-72
2023/03/12 02:26:28;;;;;;;10.83;3.73;;;;;;;;;;5099297;28;20469;-71
2023/03/12 02:29:01;;;;;;;8.47;3.57;;;;;;;;;;5098991;28;20864;-72
2023/03/12 02:31:31;;;;;;;4.27;3.43;;;;;;;;;;5079406;28;20537;-72
2023/03/12 02:34:00;;;;;;;7.60;3.37;;;;;;;;;;5082312;28;20467;-73
2023/03/12 02:36:28;;;;;;;5.63;2.90;;;;;;;;;;5099271;28;20487;-72
2023/03/12 02:38:59;;;;;;;5.50;3.47;;;;;;;;;;5097177;28;20459;-72
2023/03/12 02:41:30;;;;;;;7.83;2.80;;;;;;;;;;5078394;28;20467;-72
2023/03/12 02:44:01;;;;;;;6.53;2.70;;;;;;;;;;5077190;28;20468;-72
2023/03/12 02:46:34;;;;;;;4.57;3.50;;;;;;;;;;5077790;28;20452;-73
2023/03/12 02:49:02;;;;;;;6.40;2.50;;;;;;;;;;5077448;28;20460;-72
2023/03/12 02:51:29;;;;;;;6.30;2.40;;;;;;;;;;5078169;28;20458;-72
2023/03/12 02:53:57;;;;;;;4.40;2.90;;;;;;;;;;5079167;28;20459;-72
2023/03/12 02:56:25;;;;;;;8.60;3.57;;;;;;;;;;5078406;28;20526;-72
2023/03/12 02:58:55;;;;;;;5.60;3.17;;;;;;;;;;5094098;28;20513;-71
2023/03/12 03:01:24;;;;;;;4.87;2.83;;;;;;;;;;5098814;28;20460;-71
2023/03/12 03:03:57;;;;;;;5.57;3.53;;;;;;;;;;5092955;28;20468;-72
2023/03/12 03:06:26;;;;;;;5.20;2.70;;;;;;;;;;5098688;28;20443;-72
2023/03/12 03:08:57;;;;;;;6.80;3.40;;;;;;;;;;5096238;28;20467;-71
2023/03/12 03:17:25;;;;;;;4.27;3.40;;;;;;;;;;5083199;28;20477;-71
2023/03/12 03:25:30;;;;;;;4.90;2.90;;;;;;;;;;5105880;28;20463;-71
2023/03/12 03:28:00;;;;;;;4.40;2.73;;;;;;;;;;5084068;28;20485;-72
2023/03/12 03:30:31;;;;;;;8.03;4.00;;;;;;;;;;5077855;28;20468;-72
2023/03/12 03:33:00;;;;;;;8.37;3.40;;;;;;;;;;5083390;28;20526;-72
2023/03/12 03:35:28;;;;;;;7.13;4.07;;;;;;;;;;5093170;28;20534;-71
2023/03/12 03:37:56;;;;;;;7.73;3.40;;;;;;;;;;5093598;28;20452;-72
2023/03/12 03:40:23;;;;;;;6.30;2.83;;;;;;;;;;5085098;28;20466;-72
2023/03/12 03:42:51;;;;;;;6.50;3.40;;;;;;;;;;5101897;28;20443;-73
2023/03/12 03:45:20;;;;;;;6.83;3.50;;;;;;;;;;5101339;28;20872;-73
2023/03/12 03:47:48;;;;;;;4.30;2.70;;;;;;;;;;5102429;28;20502;-72
2023/03/12 03:50:17;;;;;;;5.13;3.40;;;;;;;;;;5097360;28;20865;-72
2023/03/12 03:52:45;;;;;;;7.20;4.00;;;;;;;;;;5095667;28;20458;-73
2023/03/12 03:55:13;;;;;;;7.70;3.57;;;;;;;;;;5103062;28;20459;-73
2023/03/12 03:57:40;;;;;;;7.17;3.50;;;;;;;;;;5104152;28;20443;-73
2023/03/12 04:00:11;;;;;;;4.97;4.00;;;;;;;;;;5102277;28;20455;-72
2023/03/12 04:02:40;;;;;;;5.43;3.50;;;;;;;;;;5102354;28;20494;-74
2023/03/12 04:05:08;;;;;;;4.70;3.60;;;;;;;;;;5101288;28;20459;-72
2023/03/12 04:07:37;;;;;;;5.67;3.30;;;;;;;;;;5101561;28;20443;-73
2023/03/12 04:10:05;;;;;;;20.70;4.53;;;;;;;;;;5101884;28;20464;-72
2023/03/12 04:12:33;;;;;;;6.77;4.27;;;;;;;;;;5100688;28;20455;-72
2023/03/12 04:15:01;;;;;;;6.90;4.00;;;;;;;;;;5101126;28;20467;-72
2023/03/12 04:17:28;;;;;;;7.10;3.37;;;;;;;;;;5099865;28;20479;-72
2023/03/12 04:19:59;;;;;;;6.20;4.13;;;;;;;;;;5100573;28;20468;-72
2023/03/12 04:22:27;;;;;;;5.47;3.80;;;;;;;;;;5100857;28;20452;-72
2023/03/12 04:24:56;;;;;;;5.63;3.50;;;;;;;;;;5101366;28;20497;-73
2023/03/12 04:27:24;;;;;;;5.87;3.70;;;;;;;;;;5100683;28;20451;-73
2023/03/12 04:29:51;;;;;;;6.80;3.53;;;;;;;;;;5100250;28;20509;-73
2023/03/12 04:32:19;;;;;;;8.37;4.27;;;;;;;;;;5100461;28;20460;-72
2023/03/12 04:34:47;;;;;;;5.50;3.83;;;;;;;;;;5100581;28;20459;-72
2023/03/12 04:37:14;;;;;;;6.53;3.73;;;;;;;;;;5100687;28;20488;-73
2023/03/12 04:39:42;;;;;;;13.73;4.00;;;;;;;;;;5100403;28;20459;-73
2023/03/12 04:42:12;;;;;;;6.70;3.93;;;;;;;;;;5100594;28;20456;-72
2023/03/12 04:44:40;;;;;;;5.43;3.90;;;;;;;;;;5100495;28;20483;-72
2023/03/12 04:47:08;;;;;;;10.50;4.27;;;;;;;;;;5100247;28;20447;-72
2023/03/12 04:49:36;;;;;;;6.60;3.57;;;;;;;;;;5101325;28;20464;-72
2023/03/12 04:52:07;;;;;;;4.23;3.50;;;;;;;;;;5102335;28;20460;-72
2023/03/12 04:54:36;;;;;;;7.90;4.20;;;;;;;;;;5099875;28;20463;-72
2023/03/12 04:57:04;;;;;;;8.30;4.80;;;;;;;;;;5101588;28;20592;-72
2023/03/12 04:59:33;;;;;;;9.60;4.10;;;;;;;;;;5101320;28;20452;-72
2023/03/12 05:02:01;;;;;;;5.23;3.63;;;;;;;;;;5100886;28;20447;-72
2023/03/12 05:04:29;;;;;;;7.70;4.60;;;;;;;;;;5100536;28;20448;-73
2023/03/12 05:06:57;;;;;;;7.73;3.10;;;;;;;;;;5098625;28;20612;-72
2023/03/12 05:09:30;;;;;;;4.83;3.80;;;;;;;;;;5098439;28;20459;-72
2023/03/12 05:11:58;;;;;;;7.03;4.40;;;;;;;;;;5079957;28;20455;-72
2023/03/12 05:14:25;;;;;;;5.50;3.80;;;;;;;;;;5080076;28;20477;-72
2023/03/12 05:16:55;;;;;;;6.30;4.50;;;;;;;;;;5079472;28;20488;-72
2023/03/12 05:19:22;;;;;;;4.43;3.20;;;;;;;;;;5079106;28;20474;-73
2023/03/12 05:21:54;;;;;;;7.17;4.20;;;;;;;;;;5092407;28;20464;-73
2023/03/12 05:24:22;;;;;;;7.13;4.63;;;;;;;;;;5078062;28;20448;-73
2023/03/12 05:26:49;;;;;;;4.93;3.43;;;;;;;;;;5078764;28;20596;-73
2023/03/12 05:29:17;;;;;;;4.43;3.10;;;;;;;;;;5078465;28;20483;-72
2023/03/12 05:31:45;;;;;;;9.10;4.10;;;;;;;;;;5096876;28;20448;-72
2023/03/12 05:34:15;;;;;;;4.90;3.00;;;;;;;;;;5097726;28;21004;-71
2023/03/12 05:36:43;;;;;;;7.10;4.07;;;;;;;;;;5087992;28;20476;-71
2023/03/12 05:39:11;;;;;;;7.60;3.90;;;;;;;;;;5077623;28;20551;-73
2023/03/12 05:41:39;;;;;;;6.87;3.77;;;;;;;;;;5076773;28;20909;-73
2023/03/12 05:44:07;;;;;;;7.23;4.20;;;;;;;;;;5077250;28;20460;-72
2023/03/12 05:46:35;;;;;;;6.53;4.07;;;;;;;;;;5078299;28;20510;-73
2023/03/12 05:49:04;;;;;;;4.90;3.60;;;;;;;;;;5086499;28;20478;-71
2023/03/12 05:51:34;;;;;;;10.10;4.70;;;;;;;;;;5097808;28;20451;-72
2023/03/12 05:54:02;;;;;;;5.97;3.80;;;;;;;;;;5099022;28;20521;-73
2023/03/12 05:56:29;;;;;;;8.53;3.80;;;;;;;;;;5098121;28;20483;-74
2023/03/12 05:58:57;;;;;;;5.23;3.50;;;;;;;;;;5097692;28;20784;-72
2023/03/12 06:01:26;;;;;;;6.60;4.23;;;;;;;;;;5097424;28;20462;-74
2023/03/12 06:03:54;;;;;;;7.87;4.30;;;;;;;;;;5097450;28;20553;-73
2023/03/12 06:06:22;;;;;;;6.50;3.30;;;;;;;;;;5098251;28;21010;-72
2023/03/12 06:08:52;;;;;;;7.70;4.30;;;;;;;;;;5098744;28;20561;-72
2023/03/12 06:11:20;;;;;;;7.50;4.53;;;;;;;;;;5097646;28;20736;-73
2023/03/12 06:13:47;;;;;;;5.30;3.27;;;;;;;;;;5089345;28;20467;-72
2023/03/12 06:16:17;;;;;;;5.50;3.50;;;;;;;;;;5077306;28;20452;-74
2023/03/12 06:18:45;;;;;;;5.77;3.73;;;;;;;;;;5076783;28;20457;-72
2023/03/12 06:21:14;;;;;;;6.27;5.20;;;;;;;;;;5076598;28;20448;-73
2023/03/12 06:23:42;;;;;;;7.83;4.33;;;;;;;;;;5075620;28;20468;-73
2023/03/12 06:26:14;;;;;;;5.67;4.00;;;;;;;;;;5077145;28;20542;-73
2023/03/12 06:28:42;;;;;;;6.50;4.00;;;;;;;;;;5077474;28;20448;-72
2023/03/12 06:31:10;;;;;;;5.70;3.50;;;;;;;;;;5078955;28;20456;-74
2023/03/12 06:33:41;;;;;;;5.00;3.93;;;;;;;;;;5078807;28;20468;-73
2023/03/12 06:36:10;;;;;;;5.97;3.97;;;;;;;;;;5092399;28;20456;-72
2023/03/12 06:38:38;;;;;;;7.57;3.80;;;;;;;;;;5098330;28;20860;-73
2023/03/12 06:41:06;;;;;;;6.47;3.67;;;;;;;;;;5093686;28;20449;-72
2023/03/12 06:44:00;;;;;;;6.77;4.07;;;;;;;;;;5078190;28;20456;-73
2023/03/12 06:46:53;;;;;;;6.70;3.90;;;;;;;;;;5085346;28;20483;-72
2023/03/12 06:49:22;;;;;;;5.70;3.67;;;;;;;;;;5099484;28;20440;-72
2023/03/12 06:51:53;;;;;;;5.83;3.40;;;;;;;;;;5093602;28;20821;-73
2023/03/12 06:54:21;;;;;;;5.60;3.10;;;;;;;;;;5077687;28;20456;-73
2023/03/12 06:56:49;;;;;;;5.40;3.50;;;;;;;;;;5087959;28;20479;-72
2023/03/12 06:59:20;;;;;;;6.20;4.37;;;;;;;;;;5097249;28;20452;-72
2023/03/12 07:01:48;;;;;;;7.83;4.30;;;;;;;;;;5096334;28;20447;-72
2023/03/12 07:04:15;;;;;;;6.30;3.70;;;;;;;;;;5095446;28;20463;-72
2023/03/12 07:06:49;;;;;;;3.73;3.30;;;;;;;;;;5077018;28;20448;-72
2023/03/12 07:09:17;;;;;;;9.73;4.77;;;;;;;;;;5081319;28;20472;-73
2023/03/12 07:11:46;;;;;;;6.37;3.47;;;;;;;;;;5080908;28;20502;-71
2023/03/12 07:14:14;;;;;;;9.57;5.10;;;;;;;;;;5085496;28;20458;-71
2023/03/12 07:16:41;;;;;;;7.93;4.30;;;;;;;;;;5102693;28;20482;-71
2023/03/12 07:19:11;;;;;;;6.43;3.97;;;;;;;;;;5103764;28;20455;-73
2023/03/12 07:21:39;;;;;;;7.20;3.60;;;;;;;;;;5082099;28;20449;-73
2023/03/12 07:24:09;;;;;;;6.03;3.83;;;;;;;;;;5080788;28;20530;-71
2023/03/12 07:26:37;;;;;;;5.30;3.50;;;;;;;;;;5081459;28;20453;-72
2023/03/12 07:29:12;;;;;;;5.07;3.30;;;;;;;;;;5080624;28;20478;-73
2023/03/12 07:31:40;;;;;;;8.10;3.67;;;;;;;;;;5083757;28;20460;-73
2023/03/12 07:34:10;;;;;;;5.43;4.53;;;;;;;;;;5080769;28;20479;-72
2023/03/12 07:36:40;;;;;;;9.30;4.47;;;;;;;;;;5087070;28;20562;-72
2023/03/12 07:39:12;;;;;;;5.53;3.30;;;;;;;;;;5101965;28;20466;-72
2023/03/12 07:41:40;;;;;;;6.57;3.77;;;;;;;;;;5099829;28;20451;-72
2023/03/12 07:44:08;;;;;;;5.90;4.00;;;;;;;;;;5083375;28;21052;-72
2023/03/12 07:46:36;;;;;;;27.43;9.17;;;;;;;;;;5080367;28;20471;-72
2023/03/12 07:49:04;;;;;;;22.07;3.87;;;;;;;;;;5080745;28;20514;-72
2023/03/12 07:51:34;;;;;;;7.70;4.33;;;;;;;;;;5079356;28;20829;-73
2023/03/12 07:54:05;;;;;;;4.83;3.10;;;;;;;;;;5079452;28;20915;-73
2023/03/12 07:56:35;;;;;;;6.03;3.70;;;;;;;;;;5091660;28;20859;-73
2023/03/12 07:59:02;;;;;;;5.20;3.53;;;;;;;;;;5100327;28;20452;-73
2023/03/12 08:01:31;;;;;;;6.50;3.30;;;;;;;;;;5100302;28;20451;-72
2023/03/12 08:03:59;;;;;;;9.00;4.30;;;;;;;;;;5100670;28;21014;-72
2023/03/12 08:06:27;;;;;;;4.77;3.67;;;;;;;;;;5099882;28;20534;-72
2023/03/12 08:08:55;;;;;;;5.80;3.70;;;;;;;;;;5099877;28;20455;-72
2023/03/12 08:11:22;;;;;;;5.00;3.23;;;;;;;;;;5100254;28;20856;-71
2023/03/12 08:13:52;;;;;;;5.77;2.90;;;;;;;;;;5100100;28;20460;-71
2023/03/12 08:16:21;;;;;;;5.10;3.70;;;;;;;;;;5092540;28;21081;-72
2023/03/12 08:18:49;;;;;;;7.47;3.70;;;;;;;;;;5078866;28;20970;-72
2023/03/12 08:21:17;;;;;;;6.10;3.90;;;;;;;;;;5078675;28;20463;-72
2023/03/12 08:23:45;;;;;;;6.47;3.80;;;;;;;;;;5081485;28;20745;-72
2023/03/12 08:26:12;;;;;;;5.77;3.47;;;;;;;;;;5084769;28;20455;-72
2023/03/12 08:28:40;;;;;;;7.17;4.13;;;;;;;;;;5100761;28;20782;-72
2023/03/12 08:47:19;;;;;;;6.10;4.60;;;;;;;;;;5013132;28;20445;-72
2023/03/12 09:30:39;;;;;;;5.80;2.80;;;;;;;;;;4939090;29;20468;-72
2023/03/12 11:12:01;;;;;;;5.07;3.00;;;;;;;;;;5014086;28;20517;-71
2023/03/12 11:14:30;;;;;;;4.57;2.33;;;;;;;;;;5117405;28;20523;-71
2023/03/12 11:17:18;;;;;;;11.67;3.47;;;;;;;;;;5113393;28;20540;-72
2023/03/12 11:19:46;;;;;;;3.67;2.37;;;;;;;;;;5115766;28;20860;-72
2023/03/12 11:22:27;;;;;;;8.23;2.70;;;;;;;;;;5115254;28;20542;-71
2023/03/12 11:25:00;;;;;;;3.20;2.53;;;;;;;;;;5118829;28;20437;-72
2023/03/12 11:27:39;;;;;;;6.97;3.90;;;;;;;;;;5116714;28;20490;-72
2023/03/12 11:30:19;;;;;;;9.50;3.03;;;;;;;;;;5118813;28;20582;-71
2023/03/12 11:32:51;;;;;;;9.87;3.00;;;;;;;;;;5097638;28;20550;-74
2023/03/12 11:35:36;;;;;;;4.63;2.60;;;;;;;;;;5098687;28;20482;-72
2023/03/12 11:38:13;;;;;;;5.13;3.00;;;;;;;;;;5098035;28;20483;-72
2023/03/12 11:40:50;;;;;;;11.37;3.80;;;;;;;;;;5097131;28;20489;-72
2023/03/12 11:43:22;;;;;;;8.83;3.77;;;;;;;;;;5098358;28;20455;-72
2023/03/12 11:45:56;;;;;;;7.17;2.77;;;;;;;;;;5110618;28;20447;-73
2023/03/12 11:48:26;;;;;;;4.87;3.10;;;;;;;;;;5119381;28;20486;-72
2023/03/12 11:51:00;;;;;;;3.53;1.83;;;;;;;;;;5120361;28;20458;-73
2023/03/12 11:53:43;;;;;;;5.73;2.60;;;;;;;;;;5116728;28;20458;-73
2023/03/12 11:56:23;;;;;;;11.73;5.00;;;;;;;;;;5123285;28;20453;-73
2023/03/12 11:59:12;;;;;;;6.90;2.03;;;;;;;;;;5121708;28;20845;-73
2023/03/12 12:01:50;;;;;;;3.60;2.03;;;;;;;;;;5119199;28;20457;-72
2023/03/12 12:04:29;;;;;;;4.30;2.33;;;;;;;;;;5122557;28;20469;-72
2023/03/12 12:07:05;;;;;;;3.70;1.93;;;;;;;;;;5123493;28;20492;-72
2023/03/12 12:09:40;;;;;;;7.90;1.97;;;;;;;;;;5121832;28;20744;-73
2023/03/12 12:15:19;;;;;;;4.80;3.20;;;;;;;;;;5118942;28;20478;-72
2023/03/12 12:18:00;;;;;;;7.63;2.83;;;;;;;;;;5114571;28;20474;-72
2023/03/12 12:20:34;;;;;;;7.50;1.63;;;;;;;;;;5122105;28;20446;-72
2023/03/12 12:23:17;;;;;;;5.13;2.60;;;;;;;;;;5119837;28;20865;-72
2023/03/12 12:25:53;;;;;;;6.60;2.97;;;;;;;;;;5106563;27;20460;-72
2023/03/12 12:28:39;;;;;;;7.13;2.23;;;;;;;;;;5100851;28;20443;-71
2023/03/12 12:31:13;;;;;;;5.00;2.50;;;;;;;;;;5102328;28;20471;-73
2023/03/12 12:33:54;;;;;;;5.90;2.30;;;;;;;;;;5099856;28;20447;-72
2023/03/12 12:36:24;;;;;;;6.50;3.23;;;;;;;;;;5098811;28;20781;-72
2023/03/12 12:39:00;;;;;;;7.20;2.47;;;;;;;;;;5099140;28;20915;-72
2023/03/12 12:41:31;;;;;;;5.47;2.77;;;;;;;;;;5101867;28;20530;-72
2023/03/12 12:44:00;;;;;;;5.67;2.90;;;;;;;;;;5099985;28;20555;-73
2023/03/12 12:46:32;;;;;;;7.50;2.17;;;;;;;;;;5116265;28;20470;-72
2023/03/12 12:49:10;;;;;;;4.73;2.43;;;;;;;;;;5115434;28;20568;-73
2023/03/12 12:51:45;;;;;;;8.90;4.03;;;;;;;;;;5119870;28;20477;-72
2023/03/12 12:54:18;;;;;;;6.97;3.50;;;;;;;;;;5101874;28;20458;-71
2023/03/12 12:57:28;;;;;;;;;;;;;;;;;;;;;
2023/03/12 13:00:06;;;;;;;9.80;2.70;;;;;;;;;;5101075;28;20420;-72
2023/03/12 13:02:43;;;;;;;5.83;2.47;;;;;;;;;;5099406;28;20487;-72
2023/03/12 13:05:30;;;;;;;6.07;2.07;;;;;;;;;;5109100;28;20489;-72
2023/03/12 13:08:11;;;;;;;5.70;3.17;;;;;;;;;;5119547;28;20454;-73
2023/03/12 13:10:53;;;;;;;12.43;2.80;;;;;;;;;;5120495;28;20544;-71
2023/03/12 13:13:28;;;;;;;7.97;2.63;;;;;;;;;;5118837;28;20839;-72
2023/03/12 13:16:12;;;;;;;3.47;1.70;;;;;;;;;;5111035;28;20890;-71
2023/03/12 13:19:01;;;;;;;3.13;1.63;;;;;;;;;;5092939;28;20487;-72
2023/03/12 13:22:05;;;;;;;6.63;2.30;;;;;;;;;;5100773;28;20447;-72
2023/03/12 13:24:37;;;;;;;6.07;1.60;;;;;;;;;;5096916;28;20791;-72
2023/03/12 13:27:16;;;;;;;3.90;2.50;;;;;;;;;;5101785;28;20822;-71
2023/03/12 13:29:53;;;;;;;3.70;1.93;;;;;;;;;;5097399;28;20554;-72
2023/03/12 13:32:57;;;;;;;6.67;3.47;;;;;;;;;;5099704;28;20451;-71
2023/03/12 13:35:50;;;;;;;4.63;2.23;;;;;;;;;;5099230;28;20455;-73
2023/03/12 13:38:41;;;;;;;3.80;1.90;;;;;;;;;;5102871;28;20498;-72
2023/03/12 13:41:37;;;;;;;5.03;2.57;;;;;;;;;;5115609;28;20481;-73
2023/03/12 13:50:30;;;;;;;6.23;2.30;;;;;;;;;;5098974;28;20478;-73
2023/03/12 13:53:07;;;;;;;6.20;2.43;;;;;;;;;;5097679;28;20458;-72
2023/03/12 13:55:48;;;;;;;6.13;2.73;;;;;;;;;;5118007;28;20458;-72
2023/03/12 13:58:20;;;;;;;4.90;3.13;;;;;;;;;;5113769;28;20553;-72
2023/03/12 14:01:00;;;;;;;7.53;3.20;;;;;;;;;;5118405;28;20764;-73
2023/03/12 14:03:39;;;;;;;7.03;3.90;;;;;;;;;;5100251;28;20483;-73
2023/03/12 14:06:21;;;;;;;3.13;1.90;;;;;;;;;;5108781;28;20545;-73
2023/03/12 14:09:13;;;;;;;3.67;1.97;;;;;;;;;;5118644;28;20589;-72
2023/03/12 14:11:50;;;;;;;5.97;3.07;;;;;;;;;;5118179;28;20458;-71
2023/03/12 14:14:28;;;;;;;8.00;3.87;;;;;;;;;;5117285;28;20723;-71
2023/03/12 14:17:18;;;;;;;9.40;4.10;;;;;;;;;;5100384;28;20525;-72
2023/03/12 14:19:51;;;;;;;7.90;2.70;;;;;;;;;;5102644;28;20542;-72
2023/03/12 14:22:26;;;;;;;5.93;2.70;;;;;;;;;;5104087;28;20901;-73
2023/03/12 14:25:00;;;;;;;7.00;2.87;;;;;;;;;;5106066;28;20906;-73
2023/03/12 14:27:46;;;;;;;5.33;3.13;;;;;;;;;;5121139;28;20450;-72
2023/03/12 14:30:17;;;;;;;5.43;2.90;;;;;;;;;;5118421;28;20474;-72
2023/03/12 14:35:43;;;;;;;9.53;4.03;;;;;;;;;;5115377;28;20550;-72
2023/03/12 14:41:12;;;;;;;8.60;3.70;;;;;;;;;;5099020;28;20436;-71
2023/03/12 14:43:42;;;;;;;7.97;3.70;;;;;;;;;;5115475;28;20468;-73
2023/03/12 14:46:16;;;;;;;4.67;3.00;;;;;;;;;;5109654;28;20448;-73
2023/03/12 14:48:54;;;;;;;4.67;2.90;;;;;;;;;;5099446;28;20444;-73
2023/03/12 14:51:40;;;;;;;6.93;3.63;;;;;;;;;;5099161;28;20435;-73
2023/03/12 14:54:17;;;;;;;9.17;4.40;;;;;;;;;;5100071;28;20472;-72
2023/03/12 14:56:48;;;;;;;6.30;3.90;;;;;;;;;;5099693;28;20475;-72
2023/03/12 14:59:29;;;;;;;6.03;2.60;;;;;;;;;;5098780;28;20753;-72
2023/03/12 15:02:00;;;;;;;5.57;3.80;;;;;;;;;;5101849;28;20461;-72
2023/03/12 15:04:30;;;;;;;7.07;4.13;;;;;;;;;;5117046;28;20447;-73
2023/03/12 15:07:03;;;;;;;5.57;3.00;;;;;;;;;;5121109;28;20863;-73
2023/03/12 15:09:48;;;;;;;6.80;2.90;;;;;;;;;;5118279;28;20431;-72
2023/03/12 15:12:34;;;;;;;6.37;3.50;;;;;;;;;;5120676;28;20569;-72
2023/03/12 15:15:19;;;;;;;4.17;2.77;;;;;;;;;;5106757;28;20444;-72
2023/03/12 15:17:47;;;;;;;6.30;3.20;;;;;;;;;;5099048;28;20491;-71
2023/03/12 15:20:21;;;;;;;11.13;4.93;;;;;;;;;;5097905;28;20510;-73
2023/03/12 15:23:10;;;;;;;8.30;4.07;;;;;;;;;;5098755;28;20490;-72
2023/03/12 15:25:53;;;;;;;5.50;3.57;;;;;;;;;;5097604;28;20436;-72
2023/03/12 15:28:31;;;;;;;4.93;2.73;;;;;;;;;;5100574;28;20717;-73
2023/03/12 15:31:17;;;;;;;6.40;2.63;;;;;;;;;;5101287;28;20503;-74
2023/03/12 15:33:45;;;;;;;7.80;3.40;;;;;;;;;;5112573;28;20746;-73
2023/03/12 15:42:14;;;;;;;4.03;3.60;;;;;;;;;;5094223;28;20468;-73
2023/03/12 15:44:52;;;;;;;10.87;6.77;;;;;;;;;;5106041;28;20435;-73
2023/03/12 15:47:21;;;;;;;5.00;3.47;;;;;;;;;;5123207;28;20484;-72
2023/03/12 15:49:51;;;;;;;6.07;3.90;;;;;;;;;;5121266;28;20438;-73
2023/03/12 15:52:35;;;;;;;5.93;3.60;;;;;;;;;;5111918;28;20448;-73
2023/03/12 15:55:11;;;;;;;6.63;3.47;;;;;;;;;;5101337;28;20443;-72
2023/03/12 15:57:53;;;;;;;8.50;5.70;;;;;;;;;;5123596;28;20464;-72
2023/03/12 16:00:30;;;;;;;6.50;4.30;;;;;;;;;;5119977;28;20480;-74
2023/03/12 16:03:06;;;;;;;5.73;3.67;;;;;;;;;;5121914;28;20446;-73
2023/03/12 16:05:42;;;;;;;3.90;3.00;;;;;;;;;;5108758;28;20438;-73
2023/03/12 16:08:25;;;;;;;4.47;3.60;;;;;;;;;;5122706;28;20454;-73
2023/03/12 16:11:08;;;;;;;5.83;4.27;;;;;;;;;;5105227;28;20478;-74
2023/03/12 16:13:53;;;;;;;4.40;3.20;;;;;;;;;;5102254;28;20455;-73
2023/03/12 16:16:29;;;;;;;6.63;4.07;;;;;;;;;;5089184;28;20470;-74
2023/03/12 16:18:57;;;;;;;7.23;4.40;;;;;;;;;;5101421;28;20483;-73
2023/03/12 16:21:26;;;;;;;9.97;6.20;;;;;;;;;;5100677;28;20462;-74
2023/03/12 16:23:53;;;;;;;8.13;5.60;;;;;;;;;;5110856;28;20455;-73
2023/03/12 16:26:23;;;;;;;6.50;5.03;;;;;;;;;;5121968;28;20844;-73
2023/03/12 16:28:56;;;;;;;14.57;7.10;;;;;;;;;;5119658;28;21067;-73
2023/03/12 16:31:25;;;;;;;6.93;4.40;;;;;;;;;;5110656;28;21066;-73
2023/03/12 16:33:53;;;;;;;6.17;5.47;;;;;;;;;;5100161;28;20475;-73
2023/03/12 16:36:21;;;;;;;4.17;3.50;;;;;;;;;;5099381;28;20463;-72
2023/03/12 16:38:49;;;;;;;4.73;3.63;;;;;;;;;;5100380;28;20777;-72
2023/03/12 16:41:25;;;;;;;5.00;4.20;;;;;;;;;;5101090;28;20470;-73
2023/03/12 16:43:55;;;;;;;6.73;5.23;;;;;;;;;;5113255;28;20543;-72
2023/03/12 16:46:29;;;;;;;9.60;5.53;;;;;;;;;;5110011;28;20506;-73
2023/03/12 16:48:57;;;;;;;11.60;7.00;;;;;;;;;;5107827;28;20456;-73
2023/03/12 16:51:28;;;;;;;7.53;6.40;;;;;;;;;;5103397;28;20471;-74
2023/03/12 16:53:58;;;;;;;6.80;4.87;;;;;;;;;;5113187;28;20502;-73
2023/03/12 16:56:29;;;;;;;9.13;6.70;;;;;;;;;;5117381;28;20481;-72
2023/03/12 16:59:05;;;;;;;6.80;5.60;;;;;;;;;;5112628;28;20479;-74
2023/03/12 17:01:40;;;;;;;8.90;7.00;;;;;;;;;;5120226;28;20541;-73
2023/03/12 17:04:07;;;;;;;16.60;8.03;;;;;;;;;;5119159;28;20474;-72
2023/03/12 17:06:46;;;;;;;6.90;5.70;;;;;;;;;;5116483;28;20454;-73
2023/03/12 17:09:18;;;;;;;7.77;6.20;;;;;;;;;;5107374;28;20455;-73
2023/03/12 17:14:46;;;;;;;10.77;4.80;;;;;;;;;;5118177;28;20455;-73
2023/03/12 17:17:17;;;;;;;8.67;6.27;;;;;;;;;;5106717;28;20520;-73
2023/03/12 17:19:47;;;;;;;7.40;5.20;;;;;;;;;;5108111;28;20549;-73
2023/03/12 17:22:18;;;;;;;10.23;6.67;;;;;;;;;;5105760;28;20503;-72
2023/03/12 17:24:52;;;;;;;7.17;5.90;;;;;;;;;;5116644;28;20901;-72
2023/03/12 17:27:39;;;;;;;7.37;6.10;;;;;;;;;;5110457;28;20489;-71
2023/03/12 17:30:35;;;;;;;11.80;6.60;;;;;;;;;;5110950;28;20456;-74
2023/03/12 17:36:00;;;;;;;8.00;5.83;;;;;;;;;;5113565;28;20459;-72
2023/03/12 17:38:31;;;;;;;8.77;5.50;;;;;;;;;;5120434;28;20505;-72
2023/03/12 17:41:07;;;;;;;8.13;5.13;;;;;;;;;;5111508;28;20514;-72
2023/03/12 17:43:35;;;;;;;7.73;6.50;;;;;;;;;;5119466;28;20529;-73
2023/03/12 17:46:07;;;;;;;10.33;6.93;;;;;;;;;;5119886;28;20469;-73
2023/03/12 17:48:39;;;;;;;6.47;4.90;;;;;;;;;;5120987;28;20482;-72
2023/03/12 17:51:11;;;;;;;7.90;4.63;;;;;;;;;;5115333;28;20448;-71
2023/03/12 17:53:41;;;;;;;6.60;5.17;;;;;;;;;;5108641;28;20446;-72
2023/03/12 17:56:12;;;;;;;9.30;6.07;;;;;;;;;;5117717;28;20451;-72
2023/03/12 17:58:42;;;;;;;7.27;5.20;;;;;;;;;;5119997;28;20455;-72
2023/03/12 18:01:20;;;;;;;7.77;5.13;;;;;;;;;;5117862;28;20589;-72
2023/03/12 18:03:52;;;;;;;8.63;6.10;;;;;;;;;;5119343;28;20443;-72
2023/03/12 18:06:20;;;;;;;7.80;5.13;;;;;;;;;;5098201;28;20432;-72
2023/03/12 18:09:02;;;;;;;6.60;5.57;;;;;;;;;;5107970;28;20451;-72
2023/03/12 18:11:53;;;;;;;9.07;8.07;;;;;;;;;;5094206;28;20528;-73
2023/03/12 18:14:34;;;;;;;6.80;4.87;;;;;;;;;;5111592;28;20454;-72
2023/03/12 18:17:08;;;;;;;18.03;8.93;;;;;;;;;;5118892;28;20489;-72
2023/03/12 18:19:43;;;;;;;10.20;8.13;;;;;;;;;;5118399;28;20479;-73
2023/03/12 18:22:13;;;;;;;9.80;6.60;;;;;;;;;;5118918;28;20477;-71
2023/03/12 18:24:48;;;;;;;11.70;7.83;;;;;;;;;;5118642;28;20516;-72
2023/03/12 18:27:24;;;;;;;11.10;7.70;;;;;;;;;;5118643;28;20451;-73
2023/03/12 18:29:53;;;;;;;10.87;8.20;;;;;;;;;;5118816;27;20539;-72
2023/03/12 18:32:35;;;;;;;13.40;9.67;;;;;;;;;;5117710;27;20861;-73
2023/03/12 18:35:08;;;;;;;15.70;10.80;;;;;;;;;;5105551;28;20553;-73
2023/03/12 18:37:35;;;;;;;13.77;9.33;;;;;;;;;;5109845;28;20491;-72
2023/03/12 18:40:07;;;;;;;12.60;9.70;;;;;;;;;;5108090;28;20483;-72
2023/03/12 18:42:36;;;;;;;14.80;10.77;;;;;;;;;;5099828;28;20482;-72